createdAt,value
2022-12-25T00:01:57.931Z,100647.44
2022-12-25T00:04:25.815Z,100651.03
2022-12-25T00:06:53.728Z,100647.44
2022-12-25T00:09:21.718Z,100634.88
2022-12-25T00:11:49.621Z,100638.16
2022-12-25T00:14:17.514Z,100642.53
2022-12-25T00:16:45.680Z,100646.94
2022-12-25T00:19:15.062Z,100646.94
2022-12-25T00:21:43.001Z,100645.28
2022-12-25T00:24:10.957Z,100654.06
2022-12-25T00:26:39.231Z,100666.53
2022-12-25T00:29:07.117Z,100666.63
2022-12-25T00:31:35.203Z,100671.97
2022-12-25T00:34:03.245Z,100672.09
2022-12-25T00:36:37.734Z,100663.41
2022-12-25T00:39:09.237Z,100675.88
2022-12-25T00:41:54.423Z,100667.19
2022-12-25T00:44:22.439Z,100672.59
2022-12-25T00:46:50.605Z,100670.84
2022-12-25T00:49:18.553Z,100665.47
2022-12-25T00:51:47.841Z,100669.91
2022-12-25T00:54:15.735Z,100656.44
2022-12-25T00:56:43.720Z,100654.56
2022-12-25T00:59:11.749Z,100661.69
2022-12-25T01:01:40.113Z,100660.03
2022-12-25T01:04:08.840Z,100664.44
2022-12-25T01:06:36.797Z,100662.66
2022-12-25T01:09:23.550Z,100661.63
2022-12-25T01:11:51.498Z,100655.34
2022-12-25T01:14:19.434Z,100641.22
2022-12-25T01:16:47.375Z,100647.25
2022-12-25T01:19:15.359Z,100650.78
2022-12-25T01:21:43.289Z,100648.06
2022-12-25T01:24:12.749Z,100645.44
2022-12-25T01:26:40.640Z,100618.56
2022-12-25T01:29:08.552Z,100641.06
2022-12-25T01:31:36.702Z,100633.91
2022-12-25T01:34:04.606Z,100638.31
2022-12-25T01:36:32.453Z,100620.59
2022-12-25T01:39:00.347Z,100633.84
2022-12-25T01:41:29.637Z,100626.63
2022-12-25T01:44:05.753Z,100638.06
2022-12-25T01:46:33.680Z,100627.31
2022-12-25T01:49:03.398Z,100621.06
2022-12-25T01:51:32.945Z,100618.44
2022-12-25T01:54:01.904Z,100630.84
2022-12-25T01:56:31.160Z,100637.97
2022-12-25T01:58:59.326Z,100625.44
2022-12-25T02:01:27.292Z,100622.84
2022-12-25T02:03:56.095Z,100630.44
2022-12-25T02:06:24.008Z,100631.75
2022-12-25T02:08:51.897Z,100639.50
2022-12-25T02:11:33.640Z,100628.59
2022-12-25T02:14:03.110Z,100627.56
2022-12-25T02:16:31.622Z,100621.97
2022-12-25T02:19:01.242Z,100621.03
2022-12-25T02:21:36.441Z,100617.22
2022-12-25T02:24:27.631Z,100614.31
2022-12-25T02:27:05.007Z,100620.34
2022-12-25T02:29:39.295Z,100621.72
2022-12-25T02:32:11.215Z,100614.50
2022-12-25T02:34:41.974Z,100621.38
2022-12-25T02:37:12.418Z,100631.81
2022-12-25T02:39:59.375Z,100631.63
2022-12-25T02:42:49.207Z,100630.59
2022-12-25T02:45:38.127Z,100632.22
2022-12-25T02:48:24.346Z,100624.31
2022-12-25T02:51:10.022Z,100620.78
2022-12-25T02:53:55.397Z,100633.34
2022-12-25T02:56:40.780Z,100635.41
2022-12-25T02:59:26.157Z,100633.78
2022-12-25T03:02:13.376Z,100632.31
2022-12-25T03:04:58.496Z,100628.94
2022-12-25T03:07:26.386Z,100629.91
2022-12-25T03:10:13.738Z,100621.13
2022-12-25T03:12:43.731Z,100623.97
2022-12-25T03:15:29.578Z,100627.41
2022-12-25T03:18:00.211Z,100623.88
2022-12-25T03:20:45.689Z,100624.72
2022-12-25T03:23:31.155Z,100634.63
2022-12-25T03:26:16.291Z,100637.41
2022-12-25T03:28:44.243Z,100630.31
2022-12-25T03:31:15.851Z,100631.19
2022-12-25T03:34:23.046Z,100633.84
2022-12-25T03:37:02.276Z,100620.59
2022-12-25T03:39:53.097Z,100616.91
2022-12-25T03:42:47.417Z,100604.41
2022-12-25T03:45:36.063Z,100605.13
2022-12-25T03:48:21.323Z,100599.00
2022-12-25T03:51:10.320Z,100598.81
2022-12-25T03:53:58.105Z,100596.25
2022-12-25T03:56:43.541Z,100588.25
2022-12-25T03:59:29.053Z,100562.50
2022-12-25T04:02:14.528Z,100561.66
2022-12-25T04:04:59.885Z,100553.72
2022-12-25T04:07:46.391Z,100543.16
2022-12-25T04:10:31.753Z,100538.75
2022-12-25T04:13:17.261Z,100528.25
2022-12-25T04:16:02.532Z,100532.81
2022-12-25T04:18:47.837Z,100517.94
2022-12-25T04:21:33.354Z,100518.88
2022-12-25T04:24:19.479Z,100521.81
2022-12-25T04:27:04.803Z,100526.38
2022-12-25T04:29:50.137Z,100520.25
2022-12-25T04:32:35.734Z,100516.06
2022-12-25T04:35:21.171Z,100513.66
2022-12-25T04:37:49.108Z,100512.16
2022-12-25T04:40:19.378Z,100519.31
2022-12-25T04:42:47.323Z,100515.03
2022-12-25T04:45:15.221Z,100510.72
2022-12-25T04:47:43.193Z,100505.38
2022-12-25T04:50:11.395Z,100502.88
2022-12-25T04:52:39.408Z,100501.13
2022-12-25T04:55:07.829Z,100503.91
2022-12-25T04:57:37.121Z,100498.66
2022-12-25T05:00:06.093Z,100495.28
2022-12-25T05:02:34.236Z,100490.75
2022-12-25T05:05:02.219Z,100489.03
2022-12-25T05:07:30.130Z,100478.47
2022-12-25T05:09:58.328Z,100483.78
2022-12-25T05:12:26.270Z,100482.84
2022-12-25T05:14:55.517Z,100483.84
2022-12-25T05:17:23.441Z,100490.22
2022-12-25T05:19:51.368Z,100497.44
2022-12-25T05:22:19.261Z,100491.28
2022-12-25T05:24:47.166Z,100498.41
2022-12-25T05:27:15.627Z,100504.72
2022-12-25T05:29:43.552Z,100495.00
2022-12-25T05:32:12.892Z,100489.75
2022-12-25T05:34:40.839Z,100496.03
2022-12-25T05:37:08.743Z,100497.06
2022-12-25T05:39:36.800Z,100494.56
2022-12-25T05:42:04.825Z,100493.78
2022-12-25T05:44:32.748Z,100492.06
2022-12-25T05:47:00.829Z,100486.97
2022-12-25T05:49:30.203Z,100488.88
2022-12-25T05:51:58.130Z,100481.81
2022-12-25T05:54:26.042Z,100480.97
2022-12-25T05:56:53.956Z,100488.03
2022-12-25T05:59:22.057Z,100491.53
2022-12-25T06:01:50.174Z,100492.31
2022-12-25T06:04:18.214Z,100493.25
2022-12-25T06:06:47.597Z,100488.63
2022-12-25T06:09:15.483Z,100475.28
2022-12-25T06:11:43.391Z,100477.94
2022-12-25T06:14:12.559Z,100482.44
2022-12-25T06:16:40.588Z,100470.06
2022-12-25T06:19:08.546Z,100481.47
2022-12-25T06:21:36.475Z,100478.91
2022-12-25T06:24:06.320Z,100477.13
2022-12-25T06:26:34.231Z,100476.25
2022-12-25T06:29:02.157Z,100476.06
2022-12-25T06:31:30.123Z,100473.50
2022-12-25T06:33:58.129Z,100471.69
2022-12-25T06:36:27.423Z,100478.91
2022-12-25T06:38:55.383Z,100473.66
2022-12-25T06:41:25.323Z,100474.44
2022-12-25T06:43:54.539Z,100473.66
2022-12-25T06:46:22.919Z,100477.28
2022-12-25T06:48:50.886Z,100467.53
2022-12-25T06:51:18.894Z,100469.38
2022-12-25T06:53:46.804Z,100472.88
2022-12-25T06:56:16.435Z,100473.91
2022-12-25T06:58:46.132Z,100478.19
2022-12-25T07:01:16.407Z,100480.03
2022-12-25T07:03:44.571Z,100482.59
2022-12-25T07:06:12.705Z,100481.63
2022-12-25T07:08:40.649Z,100480.47
2022-12-25T07:11:08.835Z,100474.88
2022-12-25T07:13:36.859Z,100478.16
2022-12-25T07:16:07.877Z,100482.31
2022-12-25T07:18:35.918Z,100483.84
2022-12-25T07:21:07.562Z,100477.25
2022-12-25T07:23:35.590Z,100473.38
2022-12-25T07:26:03.625Z,100461.75
2022-12-25T07:28:32.160Z,100458.22
2022-12-25T07:31:03.029Z,100452.31
2022-12-25T07:33:32.488Z,100450.50
2022-12-25T07:36:00.445Z,100455.03
2022-12-25T07:38:28.348Z,100452.47
2022-12-25T07:40:56.344Z,100452.22
2022-12-25T07:43:25.222Z,100445.59
2022-12-25T07:45:56.305Z,100449.72
2022-12-25T07:48:24.237Z,100448.63
2022-12-25T07:50:58.795Z,100443.28
2022-12-25T07:53:26.987Z,100447.75
2022-12-25T07:55:59.119Z,100450.47
2022-12-25T07:58:27.057Z,100448.94
2022-12-25T08:00:55.419Z,100451.03
2022-12-25T08:03:23.587Z,100457.28
2022-12-25T08:05:51.811Z,100460.72
2022-12-25T08:08:21.100Z,100400.94
2022-12-25T08:10:49.134Z,100464.69
2022-12-25T08:13:17.077Z,100476.06
2022-12-25T08:15:45.007Z,100474.94
2022-12-25T08:18:12.912Z,100478.19
2022-12-25T08:20:40.876Z,100482.22
2022-12-25T08:23:08.761Z,100484.63
2022-12-25T08:25:38.941Z,100487.78
2022-12-25T08:28:06.979Z,100496.41
2022-12-25T08:30:35.251Z,100507.78
2022-12-25T08:33:03.467Z,100518.44
2022-12-25T08:35:31.428Z,100544.25
2022-12-25T08:37:59.345Z,100556.91
2022-12-25T08:40:27.687Z,100571.88
2022-12-25T08:42:58.445Z,100574.03
2022-12-25T08:45:31.224Z,100560.78
2022-12-25T08:48:02.543Z,100563.03
2022-12-25T08:50:30.453Z,100544.34
2022-12-25T08:52:58.433Z,100551.47
2022-12-25T08:55:26.437Z,100547.38
2022-12-25T08:57:54.430Z,100531.34
2022-12-25T09:00:23.995Z,100526.09
2022-12-25T09:02:52.037Z,100521.94
2022-12-25T09:05:20.242Z,100542.25
2022-12-25T09:07:48.213Z,100542.09
2022-12-25T09:10:16.242Z,100539.25
2022-12-25T09:12:44.114Z,100531.00
2022-12-25T09:15:12.311Z,100531.09
2022-12-25T09:17:41.687Z,100537.97
2022-12-25T09:20:09.877Z,100530.84
2022-12-25T09:22:37.854Z,100532.41
2022-12-25T09:25:06.514Z,100541.03
2022-12-25T09:27:34.509Z,100541.03
2022-12-25T09:30:02.620Z,100533.81
2022-12-25T09:32:30.522Z,100537.25
2022-12-25T09:34:59.826Z,100544.34
2022-12-25T09:37:27.733Z,100537.09
2022-12-25T09:39:55.652Z,100542.19
2022-12-25T09:42:24.860Z,100533.41
2022-12-25T09:44:54.641Z,100535.81
2022-12-25T09:47:24.165Z,100538.75
2022-12-25T09:49:54.102Z,100547.59
2022-12-25T09:52:24.850Z,100549.47
2022-12-25T09:54:55.894Z,100552.13
2022-12-25T09:57:25.571Z,100552.38
2022-12-25T09:59:53.695Z,100553.09
2022-12-25T10:02:37.008Z,100552.00
2022-12-25T10:05:09.901Z,100556.03
2022-12-25T10:07:42.435Z,100549.44
2022-12-25T10:10:19.669Z,100559.75
2022-12-25T10:12:53.564Z,100567.50
2022-12-25T10:15:29.413Z,100559.31
2022-12-25T10:18:06.380Z,100564.59
2022-12-25T10:20:41.640Z,100557.59
2022-12-25T10:23:15.036Z,100560.94
2022-12-25T10:25:47.738Z,100554.16
2022-12-25T10:28:19.731Z,100571.81
2022-12-25T10:30:48.163Z,100537.97
2022-12-25T10:33:17.427Z,100567.31
2022-12-25T10:35:45.470Z,100567.41
2022-12-25T10:38:16.033Z,100561.31
2022-12-25T10:40:49.755Z,100561.97
2022-12-25T10:43:19.158Z,100562.75
2022-12-25T10:45:47.607Z,100561.72
2022-12-25T10:48:21.464Z,100561.56
2022-12-25T10:50:49.391Z,100556.22
2022-12-25T10:53:23.162Z,100552.53
2022-12-25T10:56:01.229Z,100549.09
2022-12-25T10:58:29.763Z,100554.34
2022-12-25T11:00:59.093Z,100562.94
2022-12-25T11:03:28.205Z,100554.69
2022-12-25T11:05:56.301Z,100546.22
2022-12-25T11:08:27.388Z,100544.94
2022-12-25T11:10:57.525Z,100546.41
2022-12-25T11:13:27.093Z,100544.41
2022-12-25T11:16:09.554Z,100537.28
2022-12-25T11:18:48.917Z,100541.47
2022-12-25T11:21:17.905Z,100538.53
2022-12-25T11:23:48.933Z,100543.19
2022-12-25T11:26:17.807Z,100542.47
2022-12-25T11:28:46.103Z,100535.56
2022-12-25T11:31:15.435Z,100537.78
2022-12-25T11:33:47.472Z,100531.78
2022-12-25T11:36:18.891Z,100520.34
2022-12-25T11:38:48.609Z,100524.34
2022-12-25T11:41:20.483Z,100532.56
2022-12-25T11:43:49.861Z,100524.09
2022-12-25T11:46:19.586Z,100526.97
2022-12-25T11:48:50.046Z,100519.31
2022-12-25T11:51:17.933Z,100529.31
2022-12-25T11:53:48.204Z,100525.28
2022-12-25T11:56:18.755Z,100521.50
2022-12-25T11:58:47.796Z,100527.63
2022-12-25T12:01:18.602Z,100522.00
2022-12-25T12:03:46.800Z,100522.47
2022-12-25T12:06:16.378Z,100520.25
2022-12-25T12:08:44.511Z,100525.66
2022-12-25T12:11:18.013Z,100516.84
2022-12-25T12:13:54.742Z,100509.47
2022-12-25T12:16:22.897Z,100506.00
2022-12-25T12:18:51.071Z,100508.00
2022-12-25T12:21:23.260Z,100504.44
2022-12-25T12:23:55.417Z,100504.03
2022-12-25T12:26:26.082Z,100497.34
2022-12-25T12:28:54.839Z,100488.19
2022-12-25T12:31:22.863Z,100498.41
2022-12-25T12:33:53.295Z,100499.28
2022-12-25T12:36:34.438Z,100494.22
2022-12-25T12:39:03.459Z,100497.22
2022-12-25T12:41:44.507Z,100491.44
2022-12-25T12:44:12.548Z,100490.25
2022-12-25T12:46:41.088Z,100493.34
2022-12-25T12:49:10.563Z,100488.22
2022-12-25T12:51:38.950Z,100487.97
2022-12-25T12:54:20.529Z,100488.66
2022-12-25T12:57:05.480Z,100490.13
2022-12-25T12:59:38.838Z,100483.72
2022-12-25T13:02:21.577Z,100486.09
2022-12-25T13:04:53.415Z,100488.72
2022-12-25T13:07:32.320Z,100464.84
2022-12-25T13:10:05.422Z,100475.66
2022-12-25T13:12:34.750Z,100476.50
2022-12-25T13:15:02.853Z,100473.88
2022-12-25T13:17:30.901Z,100477.25
2022-12-25T13:19:59.225Z,100474.94
2022-12-25T13:22:31.015Z,100481.00
2022-12-25T13:24:59.652Z,100466.78
2022-12-25T13:27:28.879Z,100462.28
2022-12-25T13:29:58.672Z,100447.81
2022-12-25T13:32:27.518Z,100450.28
2022-12-25T13:34:55.618Z,100468.56
2022-12-25T13:37:24.676Z,100462.47
2022-12-25T13:39:54.356Z,100457.31
2022-12-25T13:42:22.985Z,100453.91
2022-12-25T13:44:51.994Z,100458.94
2022-12-25T13:47:23.902Z,100462.16
2022-12-25T13:49:52.566Z,100470.72
2022-12-25T13:52:21.611Z,100475.81
2022-12-25T13:55:02.861Z,100475.16
2022-12-25T13:57:33.183Z,100483.47
2022-12-25T14:00:01.278Z,100478.81
2022-12-25T14:02:32.532Z,100478.56
2022-12-25T14:05:00.490Z,100480.03
2022-12-25T14:07:28.497Z,100482.19
2022-12-25T14:09:58.931Z,100480.63
2022-12-25T14:12:26.956Z,100479.81
2022-12-25T14:14:54.836Z,100482.25
2022-12-25T14:17:23.651Z,100478.84
2022-12-25T14:20:05.994Z,100479.59
2022-12-25T14:22:37.958Z,100471.88
2022-12-25T14:25:16.827Z,100471.97
2022-12-25T14:27:49.443Z,100471.88
2022-12-25T14:30:18.083Z,100471.97
2022-12-25T14:32:47.389Z,100472.28
2022-12-25T14:35:22.953Z,100464.44
2022-12-25T14:37:51.748Z,100473.63
2022-12-25T14:40:22.712Z,100473.84
2022-12-25T14:42:58.689Z,100472.97
2022-12-25T14:45:28.724Z,100470.69
2022-12-25T14:47:57.207Z,100476.25
2022-12-25T14:50:31.377Z,100466.56
2022-12-25T14:52:59.473Z,100463.31
2022-12-25T14:55:28.349Z,100474.00
2022-12-25T14:57:58.679Z,100466.41
2022-12-25T15:00:28.253Z,100480.41
2022-12-25T15:02:57.355Z,100480.41
2022-12-25T15:05:31.743Z,100477.75
2022-12-25T15:08:20.326Z,100483.97
2022-12-25T15:11:04.276Z,100477.09
2022-12-25T15:13:32.484Z,100477.19
2022-12-25T15:16:04.339Z,100473.78
2022-12-25T15:18:35.542Z,100471.09
2022-12-25T15:21:05.033Z,100477.97
2022-12-25T15:23:33.168Z,100469.63
2022-12-25T15:26:01.064Z,100475.44
2022-12-25T15:28:28.994Z,100477.16
2022-12-25T15:30:57.134Z,100481.75
2022-12-25T15:33:25.065Z,100477.56
2022-12-25T15:35:52.961Z,100485.69
2022-12-25T15:38:22.462Z,100483.31
2022-12-25T15:40:50.347Z,100466.88
2022-12-25T15:43:39.931Z,100485.59
2022-12-25T15:46:06.991Z,100492.09
2022-12-25T15:48:35.305Z,100494.88
2022-12-25T15:51:03.297Z,100497.53
2022-12-25T15:53:32.702Z,100497.66
2022-12-25T15:56:00.751Z,100497.66
2022-12-25T15:58:28.653Z,100502.22
2022-12-25T16:00:56.583Z,100504.22
2022-12-25T16:03:24.638Z,100503.94
2022-12-25T16:05:52.811Z,100495.72
2022-12-25T16:08:20.721Z,100492.66
2022-12-25T16:10:50.252Z,100491.03
2022-12-25T16:13:18.351Z,100515.66
2022-12-25T16:15:46.497Z,100514.22
2022-12-25T16:18:14.540Z,100510.19
2022-12-25T16:20:42.632Z,100516.75
2022-12-25T16:23:10.671Z,100518.00
2022-12-25T16:25:38.599Z,100513.88
2022-12-25T16:28:10.324Z,100519.66
2022-12-25T16:30:38.554Z,100513.72
2022-12-25T16:33:06.515Z,100513.31
2022-12-25T16:35:34.530Z,100504.97
2022-12-25T16:38:02.577Z,100518.59
2022-12-25T16:40:30.445Z,100509.13
2022-12-25T16:42:58.491Z,100518.19
2022-12-25T16:45:27.813Z,100517.38
2022-12-25T16:47:56.657Z,100515.94
2022-12-25T16:50:24.721Z,100515.16
2022-12-25T16:52:52.756Z,100515.34
2022-12-25T16:55:25.036Z,100521.69
2022-12-25T16:57:57.317Z,100510.78
2022-12-25T17:00:25.234Z,100525.00
2022-12-25T17:02:54.779Z,100519.03
2022-12-25T17:05:22.918Z,100526.47
2022-12-25T17:07:50.916Z,100526.78
2022-12-25T17:10:19.070Z,100532.31
2022-12-25T17:12:46.981Z,100525.34
2022-12-25T17:15:15.024Z,100529.19
2022-12-25T17:17:43.036Z,100518.72
2022-12-25T17:20:13.353Z,100530.47
2022-12-25T17:22:41.300Z,100526.19
2022-12-25T17:25:10.191Z,100529.00
2022-12-25T17:27:38.218Z,100521.19
2022-12-25T17:30:07.402Z,100525.72
2022-12-25T17:32:35.561Z,100531.84
2022-12-25T17:35:04.080Z,100528.34
2022-12-25T17:37:34.203Z,100530.13
2022-12-25T17:40:02.221Z,100528.50
2022-12-25T17:42:30.128Z,100538.13
2022-12-25T17:44:58.226Z,100537.41
2022-12-25T17:47:26.246Z,100535.84
2022-12-25T17:49:54.482Z,100542.69
2022-12-25T17:52:22.433Z,100540.94
2022-12-25T17:54:51.880Z,100542.84
2022-12-25T17:57:19.804Z,100524.56
2022-12-25T17:59:47.811Z,100543.38
2022-12-25T18:02:15.903Z,100547.84
2022-12-25T18:04:43.976Z,100539.06
2022-12-25T18:07:11.920Z,100540.84
2022-12-25T18:09:40.000Z,100529.50
2022-12-25T18:12:09.441Z,100531.31
2022-12-25T18:14:37.333Z,100534.03
2022-12-25T18:17:05.227Z,100530.69
2022-12-25T18:19:33.139Z,100533.59
2022-12-25T18:22:01.592Z,100538.16
2022-12-25T18:24:29.645Z,100529.28
2022-12-25T18:26:57.908Z,100535.50
2022-12-25T18:29:27.296Z,100539.09
2022-12-25T18:31:55.689Z,100548.97
2022-12-25T18:34:23.923Z,100548.09
2022-12-25T18:36:51.889Z,100548.19
2022-12-25T18:39:19.780Z,100538.56
2022-12-25T18:42:05.198Z,100543.97
2022-12-25T18:44:34.485Z,100544.03
2022-12-25T18:47:02.497Z,100545.94
2022-12-25T18:49:30.394Z,100552.28
2022-12-25T18:52:49.174Z,100550.38
2022-12-25T18:54:46.473Z,100551.34
2022-12-25T18:57:14.472Z,100555.81
2022-12-25T18:59:43.951Z,100557.78
2022-12-25T19:02:12.405Z,100571.09
2022-12-25T19:04:40.327Z,100574.69
2022-12-25T19:07:08.238Z,100575.66
2022-12-25T19:09:36.443Z,100566.78
2022-12-25T19:12:04.700Z,100570.25
2022-12-25T19:14:47.218Z,100559.69
2022-12-25T19:17:17.640Z,100555.38
2022-12-25T19:19:45.991Z,100560.84
2022-12-25T19:22:13.897Z,100558.19
2022-12-25T19:24:41.960Z,100546.59
2022-12-25T19:27:09.852Z,100545.88
2022-12-25T19:29:39.903Z,100552.84
2022-12-25T19:32:08.073Z,100544.94
2022-12-25T19:34:37.642Z,100542.03
2022-12-25T19:37:05.965Z,100563.66
2022-12-25T19:39:33.957Z,100565.88
2022-12-25T19:42:01.857Z,100569.03
2022-12-25T19:44:29.817Z,100571.34
2022-12-25T19:46:58.082Z,100558.50
2022-12-25T19:49:26.032Z,100563.44
2022-12-25T19:51:55.468Z,100560.41
2022-12-25T19:54:23.388Z,100547.69
2022-12-25T19:56:51.323Z,100549.25
2022-12-25T19:59:19.189Z,100552.38
2022-12-25T20:01:47.370Z,100549.41
2022-12-25T20:04:17.599Z,100557.50
2022-12-25T20:06:45.607Z,100555.09
2022-12-25T20:09:17.915Z,100556.84
2022-12-25T20:11:49.765Z,100545.19
2022-12-25T20:14:17.813Z,100562.94
2022-12-25T20:16:45.772Z,100556.63
2022-12-25T20:19:14.201Z,100555.69
2022-12-25T20:21:42.180Z,100551.22
2022-12-25T20:24:11.194Z,100563.34
2022-12-25T20:26:41.487Z,100555.09
2022-12-25T20:29:09.476Z,100553.91
2022-12-25T20:31:37.584Z,100551.91
2022-12-25T20:34:06.666Z,100551.66
2022-12-25T20:36:37.496Z,100538.94
2022-12-25T20:39:06.399Z,100538.69
2022-12-25T20:41:34.355Z,100547.44
2022-12-25T20:44:04.266Z,100555.28
2022-12-25T20:46:32.308Z,100551.41
2022-12-25T20:49:00.327Z,100546.94
2022-12-25T20:51:28.681Z,100532.63
2022-12-25T20:53:56.675Z,100539.09
2022-12-25T20:56:26.101Z,100542.25
2022-12-25T20:58:55.091Z,100540.38
2022-12-25T21:01:24.796Z,100523.41
2022-12-25T21:03:53.010Z,100534.88
2022-12-25T21:06:21.235Z,100534.59
2022-12-25T21:08:49.197Z,100538.19
2022-12-25T21:11:18.064Z,100535.63
2022-12-25T21:13:46.899Z,100534.44
2022-12-25T21:16:15.773Z,100537.00
2022-12-25T21:18:45.170Z,100534.34
2022-12-25T21:21:13.109Z,100539.69
2022-12-25T21:23:41.144Z,100543.97
2022-12-25T21:26:13.446Z,100537.00
2022-12-25T21:28:41.516Z,100535.69
2022-12-25T21:31:09.698Z,100541.72
2022-12-25T21:33:51.957Z,100537.25
2022-12-25T21:36:23.016Z,100533.97
2022-12-25T21:38:53.715Z,100533.56
2022-12-25T21:41:21.635Z,100549.31
2022-12-25T21:43:49.643Z,100535.97
2022-12-25T21:46:20.648Z,100526.31
2022-12-25T21:48:48.715Z,100543.38
2022-12-25T21:51:35.127Z,100557.84
2022-12-25T21:54:04.575Z,100563.19
2022-12-25T21:56:35.998Z,100565.97
2022-12-25T21:59:07.817Z,100585.91
2022-12-25T22:01:35.976Z,100585.41
2022-12-25T22:04:04.577Z,100590.88
2022-12-25T22:07:04.556Z,100574.28
2022-12-25T22:09:33.911Z,100592.16
2022-12-25T22:12:19.681Z,100587.59
2022-12-25T22:15:02.620Z,100587.44
2022-12-25T22:17:48.894Z,100583.91
2022-12-25T22:20:17.977Z,100602.44
2022-12-25T22:22:46.007Z,100602.06
2022-12-25T22:25:15.286Z,100612.19
2022-12-25T22:27:43.911Z,100618.72
2022-12-25T22:30:13.063Z,100623.34
2022-12-25T22:32:40.994Z,100644.13
2022-12-25T22:35:09.640Z,100644.34
2022-12-25T22:37:37.588Z,100649.03
2022-12-25T22:40:06.464Z,100658.09
2022-12-25T22:42:35.810Z,100663.41
2022-12-25T22:45:03.788Z,100660.66
2022-12-25T22:47:31.669Z,100659.66
2022-12-25T22:49:59.593Z,100671.09
2022-12-25T22:52:27.500Z,100677.34
2022-12-25T22:54:55.399Z,100691.78
2022-12-25T22:57:23.444Z,100687.69
2022-12-25T22:59:53.938Z,100691.47
2022-12-25T23:02:22.056Z,100704.88
2022-12-25T23:04:50.156Z,100711.13
2022-12-25T23:07:18.097Z,100724.38
2022-12-25T23:09:46.029Z,100717.41
2022-12-25T23:12:27.810Z,100739.66
2022-12-25T23:14:57.157Z,100737.22
2022-12-25T23:17:47.754Z,100748.84
2022-12-25T23:20:33.291Z,100763.38
2022-12-25T23:23:18.514Z,100765.53
2022-12-25T23:26:04.027Z,100772.28
2022-12-25T23:28:54.775Z,100772.63
2022-12-25T23:31:26.606Z,100776.69
2022-12-25T23:33:54.567Z,100789.00
2022-12-25T23:36:22.551Z,100794.53
2022-12-25T23:38:50.465Z,100806.09
2022-12-25T23:41:18.391Z,100814.09
2022-12-25T23:43:46.294Z,100816.91
2022-12-25T23:46:14.235Z,100808.75
2022-12-25T23:48:43.567Z,100824.75
2022-12-25T23:51:11.603Z,100831.06
2022-12-25T23:53:39.868Z,100834.00
2022-12-25T23:56:07.970Z,100834.09
2022-12-25T23:58:35.897Z,100836.81
